Time;durP1;ratioP1;P1;durP2;ratioP2;P2;SDS_P1;SDS_P2;PMS_P1;PMS_P2;Temp;Humidity;BMP_temperature;BMP_pressure;BME280_temperature;BME280_humidity;BME280_pressure;Samples;Min_cycle;Max_cycle;Signal;HPM_P1;HPM_P2
2023/06/10 00:01:23;;;;;;;1999.90;999.90;;;19.60;99.90;;;;;;5032258;28;20028;-85
2023/06/10 00:03:50;;;;;;;1999.90;999.90;;;19.60;99.90;;;;;;5014606;28;20029;-85
2023/06/10 00:06:16;;;;;;;1999.90;999.90;;;19.60;99.90;;;;;;5014566;28;20029;-85
2023/06/10 00:08:42;;;;;;;1999.90;999.90;;;19.60;99.90;;;;;;5032637;28;20422;-84
2023/06/10 00:11:07;;;;;;;1999.90;999.90;;;19.60;99.90;;;;;;5032775;28;20477;-85
2023/06/10 00:13:33;;;;;;;1999.90;999.90;;;19.60;99.90;;;;;;5032903;28;20036;-85
2023/06/10 00:15:59;;;;;;;1999.90;999.90;;;19.60;99.90;;;;;;5014337;28;20029;-84
2023/06/10 00:18:26;;;;;;;1999.90;999.90;;;19.60;99.90;;;;;;5014933;28;20028;-85
2023/06/10 00:20:54;;;;;;;1999.90;999.90;;;19.60;99.90;;;;;;5032542;28;20381;-85
2023/06/10 00:23:21;;;;;;;1999.90;999.90;;;19.50;99.90;;;;;;5032421;28;20018;-85
2023/06/10 00:25:46;;;;;;;1999.90;999.90;;;19.50;99.90;;;;;;5031519;28;20022;-85
2023/06/10 00:28:13;;;;;;;1999.90;999.90;;;19.50;99.90;;;;;;5032332;28;20075;-85
2023/06/10 00:30:39;;;;;;;1999.90;999.90;;;19.50;99.90;;;;;;5032621;28;20024;-85
2023/06/10 00:33:04;;;;;;;1999.90;999.90;;;19.50;99.90;;;;;;5032264;28;20021;-85
2023/06/10 00:35:30;;;;;;;1999.90;999.90;;;19.50;99.90;;;;;;5032184;28;20053;-84
2023/06/10 00:37:56;;;;;;;1999.90;999.90;;;19.50;99.90;;;;;;5032432;28;20022;-85
2023/06/10 00:40:21;;;;;;;1999.90;999.90;;;19.50;99.90;;;;;;5032107;28;20026;-85
2023/06/10 00:42:47;;;;;;;1999.90;999.90;;;19.50;99.90;;;;;;5032425;28;20034;-85
2023/06/10 00:45:12;;;;;;;1999.90;999.90;;;19.50;99.90;;;;;;5014011;28;20026;-84
2023/06/10 00:47:39;;;;;;;1999.90;999.90;;;19.50;99.90;;;;;;5031595;28;20049;-85
2023/06/10 00:50:06;;;;;;;1999.90;999.90;;;19.50;99.90;;;;;;5032312;28;20519;-85
2023/06/10 00:52:32;;;;;;;1999.90;999.90;;;19.50;99.90;;;;;;5032243;28;20025;-85
2023/06/10 00:54:59;;;;;;;1999.90;999.90;;;19.60;99.90;;;;;;5032440;28;20037;-85
2023/06/10 00:57:26;;;;;;;1999.90;999.90;;;19.60;99.90;;;;;;5032135;28;20396;-85
2023/06/10 00:59:52;;;;;;;1999.90;999.90;;;19.60;99.90;;;;;;5014291;28;20018;-85
2023/06/10 01:02:17;;;;;;;1999.90;999.90;;;19.50;99.90;;;;;;5034061;28;20060;-85
2023/06/10 01:04:43;;;;;;;1999.90;999.90;;;19.50;99.90;;;;;;5035471;28;20028;-84
2023/06/10 01:07:28;;;;;;;1999.90;999.90;;;19.50;99.90;;;;;;5035850;28;20036;-85
2023/06/10 01:10:11;;;;;;;1999.90;999.90;;;19.40;99.90;;;;;;5035371;28;20034;-85
2023/06/10 01:12:56;;;;;;;;;;;19.40;99.90;;;;;;5028027;28;20022;-85
2023/06/10 01:15:22;;;;;;;1999.90;999.90;;;19.40;99.90;;;;;;5015511;28;20331;-85
2023/06/10 01:17:53;;;;;;;1999.90;999.90;;;19.40;99.90;;;;;;5015673;28;20041;-85
2023/06/10 01:20:19;;;;;;;1999.90;999.90;;;19.40;99.90;;;;;;5015278;28;20080;-85
2023/06/10 01:22:45;;;;;;;1999.90;999.90;;;19.40;99.90;;;;;;5015526;28;20432;-84
2023/06/10 01:25:11;;;;;;;1999.90;999.90;;;19.50;99.90;;;;;;5035617;28;20036;-85
2023/06/10 01:27:40;;;;;;;1999.90;999.90;;;19.50;99.90;;;;;;5035305;28;20511;-85
2023/06/10 01:30:18;;;;;;;1999.90;999.90;;;19.60;99.90;;;;;;5035086;28;20026;-85
2023/06/10 01:32:51;;;;;;;1999.90;999.90;;;19.70;99.90;;;;;;5035221;28;20075;-85
2023/06/10 01:35:19;;;;;;;1999.90;999.90;;;19.70;99.90;;;;;;5035025;28;20049;-85
2023/06/10 01:37:48;;;;;;;1999.90;999.90;;;19.80;99.90;;;;;;5035085;28;20022;-85
2023/06/10 01:40:15;;;;;;;1999.90;999.90;;;19.90;99.90;;;;;;5034733;28;20469;-85
2023/06/10 01:42:41;;;;;;;1999.90;999.90;;;20.00;99.90;;;;;;5034679;28;20076;-85
2023/06/10 01:45:07;;;;;;;1999.90;999.90;;;20.00;99.90;;;;;;5035077;28;20049;-86
2023/06/10 01:47:32;;;;;;;1999.90;999.90;;;20.10;99.90;;;;;;5033906;28;20104;-85
2023/06/10 01:49:58;;;;;;;1999.90;999.90;;;20.20;99.90;;;;;;5016966;28;20499;-85
2023/06/10 01:52:23;;;;;;;1999.90;999.90;;;20.20;99.90;;;;;;5034485;28;20128;-85
2023/06/10 01:54:49;;;;;;;1999.90;999.90;;;20.20;99.90;;;;;;5034883;28;20017;-85
2023/06/10 01:57:15;;;;;;;1999.90;999.90;;;20.20;99.90;;;;;;5034503;28;20030;-85
2023/06/10 01:59:44;;;;;;;1999.90;999.90;;;20.10;99.90;;;;;;5034533;28;20132;-85
2023/06/10 02:02:09;;;;;;;1999.90;999.90;;;20.10;99.90;;;;;;5034456;28;20025;-85
2023/06/10 02:04:35;;;;;;;1999.90;999.90;;;20.20;99.90;;;;;;5034313;28;20032;-84
2023/06/10 02:07:03;;;;;;;1999.90;999.90;;;20.20;99.90;;;;;;5034763;28;20041;-85
2023/06/10 02:09:34;;;;;;;1999.90;999.90;;;20.20;99.90;;;;;;5023604;28;20033;-86
2023/06/10 02:12:01;;;;;;;1999.90;999.90;;;20.30;99.90;;;;;;5017316;28;20033;-85
2023/06/10 02:14:26;;;;;;;1999.90;999.90;;;20.30;99.90;;;;;;5033697;28;20022;-86
2023/06/10 02:16:55;;;;;;;1999.90;999.90;;;20.30;99.90;;;;;;5034142;28;20060;-85
2023/06/10 02:19:21;;;;;;;1999.90;999.90;;;20.30;99.90;;;;;;5034155;28;20018;-86
2023/06/10 02:21:47;;;;;;;1999.90;999.90;;;20.30;99.90;;;;;;5034308;28;20029;-86
2023/06/10 02:24:12;;;;;;;1999.90;999.90;;;20.30;99.90;;;;;;5033851;28;20381;-86
2023/06/10 02:26:38;;;;;;;1999.90;999.90;;;20.30;99.90;;;;;;5034300;28;20021;-85
2023/06/10 02:29:03;;;;;;;1999.90;999.90;;;20.30;99.90;;;;;;5034153;28;20127;-85
2023/06/10 02:31:29;;;;;;;1999.90;999.90;;;20.30;99.90;;;;;;5034119;28;20121;-85
2023/06/10 02:33:55;;;;;;;1999.90;999.90;;;20.30;99.90;;;;;;5016197;28;20021;-85
2023/06/10 02:36:23;;;;;;;1999.90;999.90;;;20.30;99.90;;;;;;5033644;28;20071;-85
2023/06/10 02:38:49;;;;;;;1999.90;999.90;;;20.30;99.90;;;;;;5033906;28;20010;-85
2023/06/10 02:41:15;;;;;;;1999.90;999.90;;;20.30;99.90;;;;;;5033858;28;20056;-85
2023/06/10 02:43:42;;;;;;;1999.90;999.90;;;20.30;99.90;;;;;;5034163;28;20053;-85
2023/06/10 02:46:08;;;;;;;1999.90;999.90;;;20.30;99.90;;;;;;5033790;28;20382;-86
2023/06/10 02:48:42;;;;;;;1999.90;999.90;;;20.30;99.90;;;;;;5033265;28;20499;-85
2023/06/10 02:51:11;;;;;;;1999.90;999.90;;;20.30;99.90;;;;;;5034015;28;20048;-85
2023/06/10 02:53:36;;;;;;;1999.90;999.90;;;20.40;99.90;;;;;;5034020;28;20053;-85
2023/06/10 02:56:02;;;;;;;1999.90;999.90;;;20.40;99.90;;;;;;5033825;28;20519;-85
2023/06/10 02:58:28;;;;;;;1999.90;999.90;;;20.40;99.90;;;;;;5033992;28;20484;-85
2023/06/10 03:00:53;;;;;;;1999.90;999.90;;;20.40;99.90;;;;;;5033466;28;20079;-85
2023/06/10 03:03:20;;;;;;;1999.90;999.90;;;20.40;99.90;;;;;;5032904;28;20029;-86
2023/06/10 03:05:45;;;;;;;1999.90;999.90;;;20.40;99.90;;;;;;5033875;28;20471;-84
2023/06/10 03:08:11;;;;;;;1999.90;999.90;;;20.40;99.90;;;;;;5034417;28;20095;-85
2023/06/10 03:10:36;;;;;;;1999.90;999.90;;;20.40;99.90;;;;;;5033741;28;20068;-85
2023/06/10 03:13:02;;;;;;;1999.90;999.90;;;20.30;99.90;;;;;;5004350;28;20481;-86
2023/06/10 03:15:28;;;;;;;1999.90;999.90;;;20.30;99.90;;;;;;5013539;28;20105;-85
2023/06/10 03:17:54;;;;;;;1999.90;999.90;;;20.30;99.90;;;;;;5013970;28;20022;-85
2023/06/10 03:20:21;;;;;;;1999.90;999.90;;;20.30;99.90;;;;;;5013975;28;20054;-85
2023/06/10 03:22:47;;;;;;;1999.90;999.90;;;20.30;99.90;;;;;;5012967;28;20026;-85
2023/06/10 03:25:13;;;;;;;1999.90;999.90;;;20.30;99.90;;;;;;5032767;28;20021;-85
2023/06/10 03:27:41;;;;;;;1999.90;999.90;;;20.30;99.90;;;;;;5033107;28;20024;-86
2023/06/10 03:30:08;;;;;;;1999.90;999.90;;;20.30;99.90;;;;;;5032875;28;20032;-85
2023/06/10 03:32:35;;;;;;;1999.90;999.90;;;20.30;99.90;;;;;;5033069;28;20014;-86
2023/06/10 03:35:01;;;;;;;1999.90;999.90;;;20.40;99.90;;;;;;5033014;28;20527;-86
2023/06/10 03:37:26;;;;;;;1999.90;999.90;;;20.40;99.90;;;;;;5015188;28;20072;-85
2023/06/10 03:39:52;;;;;;;1999.90;999.90;;;20.40;99.90;;;;;;5032797;28;20477;-86
2023/06/10 03:42:17;;;;;;;1999.90;999.90;;;20.40;99.90;;;;;;5015059;28;20033;-86
2023/06/10 03:44:43;;;;;;;1999.90;999.90;;;20.40;99.90;;;;;;5032980;28;20026;-85
2023/06/10 03:47:09;;;;;;;1999.90;999.90;;;20.40;99.90;;;;;;5032404;28;20026;-85
2023/06/10 03:49:36;;;;;;;1999.90;999.90;;;20.50;99.90;;;;;;5031907;28;20100;-85
2023/06/10 03:52:02;;;;;;;1999.90;999.90;;;20.50;99.90;;;;;;5032482;28;20033;-85
2023/06/10 03:54:27;;;;;;;1999.90;999.90;;;20.50;99.90;;;;;;5033093;28;20101;-84
2023/06/10 03:56:53;;;;;;;1999.90;999.90;;;20.50;99.90;;;;;;5033084;28;20476;-85
2023/06/10 03:59:19;;;;;;;1999.90;999.90;;;20.40;99.90;;;;;;5032582;28;20036;-85
2023/06/10 04:01:45;;;;;;;1999.90;999.90;;;20.30;99.90;;;;;;5032787;28;20091;-85
2023/06/10 04:04:14;;;;;;;1999.90;999.90;;;20.40;99.90;;;;;;5032846;28;20053;-85
2023/06/10 04:06:39;;;;;;;1999.90;999.90;;;20.40;99.90;;;;;;5033589;28;20029;-85
2023/06/10 04:09:05;;;;;;;1999.90;999.90;;;20.30;99.90;;;;;;5025258;28;20026;-85
2023/06/10 04:11:32;;;;;;;1999.90;999.90;;;20.30;99.90;;;;;;5013551;28;20022;-85
2023/06/10 04:14:01;;;;;;;1999.90;999.90;;;20.30;99.90;;;;;;5032193;28;20369;-85
2023/06/10 04:16:27;;;;;;;1999.90;999.90;;;20.30;99.90;;;;;;5032651;28;20100;-84
2023/06/10 04:18:53;;;;;;;1999.90;999.90;;;20.20;99.90;;;;;;5032528;28;20539;-85
2023/06/10 04:21:18;;;;;;;1999.90;999.90;;;20.30;99.90;;;;;;5033398;28;20100;-86
2023/06/10 04:23:44;;;;;;;1999.90;999.90;;;20.30;99.90;;;;;;5032598;28;20026;-86
2023/06/10 04:26:12;;;;;;;1999.90;999.90;;;20.30;99.90;;;;;;5032440;28;20108;-86
2023/06/10 04:28:37;;;;;;;1999.90;999.90;;;20.30;99.90;;;;;;5032396;28;20095;-86
2023/06/10 04:31:04;;;;;;;1999.90;999.90;;;20.30;99.90;;;;;;5032313;28;20076;-86
2023/06/10 04:33:30;;;;;;;1999.90;999.90;;;20.40;99.90;;;;;;5032596;28;20105;-85
2023/06/10 04:35:56;;;;;;;1999.90;999.90;;;20.40;99.90;;;;;;5032213;28;20116;-86
2023/06/10 04:38:22;;;;;;;1999.90;999.90;;;20.40;99.90;;;;;;5036230;28;20119;-86
2023/06/10 04:40:48;;;;;;;1999.90;999.90;;;20.30;99.90;;;;;;5036062;28;20032;-86
2023/06/10 04:43:13;;;;;;;1999.90;999.90;;;20.30;99.90;;;;;;5036384;28;20109;-86
2023/06/10 04:45:39;;;;;;;1999.90;999.90;;;20.20;99.90;;;;;;5035743;28;20037;-86
2023/06/10 04:48:08;;;;;;;1999.90;999.90;;;20.20;99.90;;;;;;5035186;28;20030;-86
2023/06/10 04:50:33;;;;;;;1999.90;999.90;;;20.20;99.90;;;;;;5017921;28;20075;-86
2023/06/10 04:52:59;;;;;;;1999.90;999.90;;;20.10;99.90;;;;;;5035726;28;20030;-86
2023/06/10 04:55:25;;;;;;;1999.90;999.90;;;20.00;99.90;;;;;;5035983;28;20013;-86
2023/06/10 04:57:51;;;;;;;1999.90;999.90;;;20.00;99.90;;;;;;5036020;28;20029;-86
2023/06/10 05:00:17;;;;;;;1999.90;999.90;;;19.90;99.90;;;;;;5035634;28;20033;-86
2023/06/10 05:02:42;;;;;;;1999.90;999.90;;;19.90;99.90;;;;;;5035481;28;20021;-85
2023/06/10 05:05:11;;;;;;;1999.90;999.90;;;19.90;99.90;;;;;;5018186;28;20026;-86
2023/06/10 05:07:37;;;;;;;1999.90;999.90;;;19.90;99.90;;;;;;5036423;28;20029;-86
2023/06/10 05:10:03;;;;;;;1999.90;999.90;;;19.90;99.90;;;;;;5035898;28;20026;-85
2023/06/10 05:12:29;;;;;;;1999.90;999.90;;;19.90;99.90;;;;;;5029289;28;20029;-85
2023/06/10 05:14:54;;;;;;;1999.90;999.90;;;19.90;99.90;;;;;;5014775;28;20026;-85
2023/06/10 05:17:20;;;;;;;1999.90;999.90;;;19.90;99.90;;;;;;5016325;28;20024;-86
2023/06/10 05:19:47;;;;;;;1999.90;999.90;;;19.90;99.90;;;;;;5016027;28;20114;-85
2023/06/10 05:22:13;;;;;;;1999.90;999.90;;;20.00;99.90;;;;;;5014818;28;20022;-85
2023/06/10 05:24:39;;;;;;;1999.90;999.90;;;19.90;99.90;;;;;;5031593;28;20159;-85
2023/06/10 05:27:06;;;;;;;1999.90;999.90;;;19.90;99.90;;;;;;5035964;28;20053;-86
2023/06/10 05:29:32;;;;;;;1999.90;999.90;;;19.90;99.90;;;;;;5036119;28;20034;-86
2023/06/10 05:32:01;;;;;;;1999.90;999.90;;;19.90;99.90;;;;;;5036284;28;20032;-85
2023/06/10 05:34:27;;;;;;;1999.90;999.90;;;19.90;99.90;;;;;;5035747;28;20112;-86
2023/06/10 05:36:53;;;;;;;1999.90;999.90;;;19.90;99.90;;;;;;5035340;28;20092;-85
2023/06/10 05:39:18;;;;;;;1999.90;999.90;;;19.90;99.90;;;;;;5035678;28;20029;-86
2023/06/10 05:41:44;;;;;;;1999.90;999.90;;;19.90;99.90;;;;;;5017727;28;20025;-85
2023/06/10 05:44:09;;;;;;;1999.90;999.90;;;19.90;99.90;;;;;;5035413;28;20029;-85
2023/06/10 05:46:35;;;;;;;1999.90;999.90;;;20.00;99.90;;;;;;5035270;28;20079;-85
2023/06/10 05:49:00;;;;;;;1999.90;999.90;;;20.10;99.90;;;;;;5033634;28;20072;-86
2023/06/10 05:51:28;;;;;;;1999.90;999.90;;;20.10;99.90;;;;;;5034779;28;20108;-85
2023/06/10 05:53:54;;;;;;;1999.90;999.90;;;20.10;99.90;;;;;;5035307;28;20017;-85
2023/06/10 05:56:22;;;;;;;1999.90;999.90;;;20.10;99.90;;;;;;5035084;28;20029;-85
2023/06/10 05:58:48;;;;;;;1999.90;999.90;;;20.20;99.90;;;;;;5035220;28;20108;-86
2023/06/10 06:01:14;;;;;;;1999.90;999.90;;;20.20;99.90;;;;;;5035141;28;20021;-85
2023/06/10 06:03:39;;;;;;;1999.90;999.90;;;20.20;99.90;;;;;;5034947;28;20135;-85
2023/06/10 06:06:05;;;;;;;1999.90;999.90;;;20.20;99.90;;;;;;5034856;28;20026;-85
2023/06/10 06:08:31;;;;;;;1999.90;999.90;;;20.20;99.90;;;;;;5034955;28;20123;-85
2023/06/10 06:10:57;;;;;;;1999.90;999.90;;;20.20;99.90;;;;;;5035036;28;20247;-85
2023/06/10 06:13:23;;;;;;;1999.90;999.90;;;20.20;99.90;;;;;;5020983;28;20079;-85
2023/06/10 06:15:48;;;;;;;1999.90;999.90;;;20.20;99.90;;;;;;5015211;28;20519;-86
2023/06/10 06:18:14;;;;;;;1999.90;999.90;;;20.30;99.90;;;;;;5014782;28;20030;-85
2023/06/10 06:20:40;;;;;;;1999.90;999.90;;;20.40;99.90;;;;;;5015009;28;20030;-85
2023/06/10 06:23:06;;;;;;;1999.90;999.90;;;20.40;99.90;;;;;;5017806;28;20377;-85
2023/06/10 06:25:31;;;;;;;1999.90;999.90;;;20.30;99.90;;;;;;5034880;28;20025;-85
2023/06/10 06:27:57;;;;;;;1999.90;999.90;;;20.40;99.90;;;;;;5016846;28;20441;-85
2023/06/10 06:30:22;;;;;;;1999.90;999.90;;;20.50;99.90;;;;;;5034438;28;20018;-85
2023/06/10 06:32:48;;;;;;;1999.90;999.90;;;20.50;99.90;;;;;;5034551;28;20044;-86
2023/06/10 06:35:14;;;;;;;1999.90;999.90;;;20.50;99.90;;;;;;5034270;28;20046;-86
2023/06/10 06:37:40;;;;;;;1999.90;999.90;;;20.60;99.90;;;;;;5034732;28;20026;-85
2023/06/10 06:40:06;;;;;;;1999.90;999.90;;;20.60;99.90;;;;;;5034467;28;20074;-85
2023/06/10 06:42:31;;;;;;;1999.90;999.90;;;20.70;99.90;;;;;;5034634;28;20033;-84
2023/06/10 06:44:57;;;;;;;1999.90;999.90;;;20.70;99.90;;;;;;5034240;28;20022;-77
2023/06/10 06:47:23;;;;;;;1999.90;999.90;;;20.80;99.90;;;;;;5033912;28;20041;-85
2023/06/10 06:49:48;;;;;;;1999.90;999.90;;;20.90;99.90;;;;;;5015968;28;20489;-77
2023/06/10 06:52:15;;;;;;;1999.90;999.90;;;21.00;99.90;;;;;;5033633;28;20112;-85
2023/06/10 06:54:41;;;;;;;1999.90;999.90;;;21.00;99.90;;;;;;5034155;28;20018;-84
2023/06/10 06:57:08;;;;;;;1999.90;999.90;;;21.10;99.90;;;;;;5034014;28;20504;-85
2023/06/10 06:59:33;;;;;;;1999.90;999.90;;;21.20;99.90;;;;;;5033624;28;20398;-85
2023/06/10 07:01:59;;;;;;;1999.90;999.90;;;21.40;99.90;;;;;;5034047;28;20025;-85
2023/06/10 07:04:24;;;;;;;1999.90;999.90;;;21.40;99.90;;;;;;5016087;28;20036;-85
2023/06/10 07:06:50;;;;;;;1999.90;999.90;;;21.80;99.90;;;;;;5033787;28;20081;-86
2023/06/10 07:09:16;;;;;;;1999.90;999.90;;;22.20;99.90;;;;;;5033656;28;20400;-85
2023/06/10 07:11:42;;;;;;;1999.90;999.90;;;22.20;99.90;;;;;;5033829;28;20029;-85
2023/06/10 07:14:08;;;;;;;1999.90;999.90;;;22.20;99.90;;;;;;5033732;28;20440;-84
2023/06/10 07:16:34;;;;;;;1999.90;999.90;;;22.00;99.90;;;;;;5033720;28;20104;-85
2023/06/10 07:18:59;;;;;;;1999.90;999.90;;;21.80;99.90;;;;;;5033156;28;20070;-85
2023/06/10 07:21:25;;;;;;;1999.90;999.90;;;22.00;99.90;;;;;;5015799;28;20124;-85
2023/06/10 07:23:53;;;;;;;1999.90;999.90;;;22.00;99.90;;;;;;5024223;28;20018;-85
2023/06/10 07:26:19;;;;;;;1999.90;999.90;;;22.20;99.90;;;;;;5014170;28;20038;-85
2023/06/10 07:28:45;;;;;;;1999.90;999.90;;;22.30;99.90;;;;;;5013747;28;20026;-85
2023/06/10 07:31:11;;;;;;;1999.90;999.90;;;22.30;99.90;;;;;;5013610;28;20481;-84
2023/06/10 07:33:39;;;;;;;1999.90;999.90;;;22.40;99.90;;;;;;5013871;28;20026;-85
2023/06/10 07:36:05;;;;;;;1999.90;999.90;;;23.50;99.90;;;;;;5013484;28;20053;-84
2023/06/10 07:38:31;;;;;;;1999.90;999.90;;;24.40;99.90;;;;;;5013893;28;20050;-84
2023/06/10 07:40:56;;;;;;;1999.90;999.90;;;25.50;99.90;;;;;;5013400;28;20124;-85
2023/06/10 07:43:22;;;;;;;1999.90;999.90;;;26.40;99.90;;;;;;5013822;28;20400;-85
2023/06/10 07:45:48;;;;;;;1999.90;999.90;;;26.90;99.90;;;;;;5013526;28;20041;-84
2023/06/10 07:48:14;;;;;;;1999.90;999.90;;;25.70;99.90;;;;;;5031236;28;20060;-85
2023/06/10 07:50:40;;;;;;;1999.90;999.90;;;24.20;99.90;;;;;;5032934;28;20029;-84
2023/06/10 07:53:06;;;;;;;1999.90;999.90;;;23.10;99.90;;;;;;5033072;28;20380;-84
2023/06/10 07:55:31;;;;;;;1999.90;999.90;;;23.50;99.90;;;;;;5033833;28;20101;-84
2023/06/10 07:57:57;;;;;;;1999.90;999.90;;;25.10;99.90;;;;;;5033430;28;20029;-84
2023/06/10 08:00:23;;;;;;;1999.90;999.90;;;24.40;99.90;;;;;;5032730;28;20071;-84
2023/06/10 08:02:48;;;;;;;1999.90;999.90;;;23.40;99.90;;;;;;5015017;28;20032;-85
2023/06/10 08:05:14;;;;;;;1999.90;999.90;;;22.50;99.90;;;;;;5033110;28;20030;-77
2023/06/10 08:07:40;;;;;;;1999.90;999.90;;;22.60;99.90;;;;;;5015443;28;20045;-84
2023/06/10 08:10:06;;;;;;;1999.90;999.90;;;22.60;99.90;;;;;;5032919;28;20021;-84
2023/06/10 08:12:36;;;;;;;1999.90;999.90;;;22.60;99.90;;;;;;5010872;28;20049;-84
2023/06/10 08:15:03;;;;;;;1999.90;999.90;;;23.00;99.90;;;;;;5016723;28;20025;-84
2023/06/10 08:17:32;;;;;;;1999.90;999.90;;;23.20;99.90;;;;;;5017236;28;20453;-84
2023/06/10 08:19:57;;;;;;;1999.90;999.90;;;23.00;99.90;;;;;;5017237;28;20083;-84
2023/06/10 08:22:23;;;;;;;1999.90;999.90;;;24.00;99.90;;;;;;5017618;28;20431;-84
2023/06/10 08:24:49;;;;;;;1999.90;999.90;;;24.40;99.90;;;;;;5033754;28;20036;-84
2023/06/10 08:27:15;;;;;;;1999.90;999.90;;;24.50;99.90;;;;;;5036983;28;20153;-85
2023/06/10 08:29:40;;;;;;;1999.90;999.90;;;23.70;99.90;;;;;;5036743;28;20505;-84
2023/06/10 08:32:06;;;;;;;1999.90;999.90;;;23.00;99.90;;;;;;5036443;28;20021;-84
2023/06/10 08:34:35;;;;;;;1999.90;999.90;;;22.50;99.90;;;;;;5036777;28;20040;-84
2023/06/10 08:37:02;;;;;;;1999.90;999.90;;;22.60;99.90;;;;;;5036094;28;20483;-84
2023/06/10 08:39:31;;;;;;;1999.90;999.90;;;23.00;99.90;;;;;;5036679;28;20072;-84
2023/06/10 08:42:16;;;;;;;1999.90;999.90;;;22.80;99.90;;;;;;5036897;28;20107;-84
2023/06/10 08:44:42;;;;;;;1999.90;999.90;;;22.40;99.90;;;;;;5036671;28;20025;-84
2023/06/10 08:47:16;;;;;;;1999.90;999.90;;;22.60;99.90;;;;;;5026662;28;20054;-84
2023/06/10 08:49:46;;;;;;;1999.90;999.90;;;23.60;99.90;;;;;;5016452;28;20040;-84
2023/06/10 08:52:17;;;;;;;1999.90;999.90;;;24.20;99.90;;;;;;5015523;28;20044;-84
2023/06/10 08:55:13;;;;;;;1999.90;999.90;;;27.10;99.90;;;;;;5016352;28;20028;-84
2023/06/10 08:57:41;;;;;;;1999.90;999.90;;;29.50;99.90;;;;;;5002963;28;20404;-84
2023/06/10 09:00:08;;;;;;;1999.90;999.90;;;31.30;99.90;;;;;;5016137;28;20414;-84
2023/06/10 09:02:35;;;;;;;1999.90;999.90;;;32.30;99.90;;;;;;4999231;28;20033;-85
2023/06/10 09:05:01;;;;;;;1999.90;999.90;;;32.60;99.90;;;;;;5036778;28;20397;-84
2023/06/10 09:07:31;;;;;;;1999.90;999.90;;;32.70;99.90;;;;;;5036521;28;20401;-84
2023/06/10 09:09:58;;;;;;;1999.90;999.90;;;32.80;99.90;;;;;;5035395;28;20118;-84
2023/06/10 09:12:24;;;;;;;1999.90;999.90;;;33.00;99.90;;;;;;5035877;28;20519;-85
2023/06/10 09:14:50;;;;;;;1999.90;999.90;;;33.60;99.90;;;;;;5035777;28;20043;-84
2023/06/10 09:17:17;;;;;;;1999.90;999.90;;;32.80;99.90;;;;;;5036178;28;20144;-85
2023/06/10 09:19:43;;;;;;;1999.90;999.90;;;29.80;99.90;;;;;;5035978;28;20104;-84
2023/06/10 09:22:09;;;;;;;1999.90;999.90;;;28.30;99.90;;;;;;5035521;28;20109;-84
2023/06/10 09:24:36;;;;;;;1999.90;999.90;;;28.00;99.90;;;;;;5035457;28;20125;-85
2023/06/10 09:27:08;;;;;;;1999.90;999.90;;;29.70;99.90;;;;;;5035365;28;20463;-84
2023/06/10 09:29:54;;;;;;;1999.90;999.90;;;30.00;99.90;;;;;;5035903;28;20033;-84
2023/06/10 09:32:21;;;;;;;1999.90;999.90;;;31.60;99.90;;;;;;5017529;28;20460;-85
2023/06/10 09:34:47;;;;;;;1999.90;999.90;;;30.10;99.90;;;;;;5035429;28;20353;-83
2023/06/10 09:37:19;;;;;;;1999.90;999.90;;;29.40;99.90;;;;;;5035259;28;20030;-84
2023/06/10 09:39:45;;;;;;;1999.90;999.90;;;30.70;99.90;;;;;;5035309;28;20018;-84
2023/06/10 09:42:18;;;;;;;1999.90;999.90;;;31.90;99.90;;;;;;5035315;28;20025;-84
2023/06/10 09:44:52;;;;;;;1999.90;999.90;;;32.20;99.90;;;;;;5035616;28;20032;-84
2023/06/10 09:47:22;;;;;;;1999.90;999.90;;;31.60;99.90;;;;;;5035163;28;20520;-85
2023/06/10 09:49:49;;;;;;;1999.90;999.90;;;31.70;99.90;;;;;;5035120;28;20451;-83
2023/06/10 09:52:22;;;;;;;1999.90;999.90;;;31.50;99.90;;;;;;5035026;28;20028;-84
2023/06/10 09:54:48;;;;;;;1999.90;999.90;;;32.30;99.90;;;;;;5034658;28;20021;-84
2023/06/10 09:57:14;;;;;;;1999.90;999.90;;;33.40;99.90;;;;;;5035364;28;20085;-84
2023/06/10 09:59:40;;;;;;;1999.90;999.90;;;33.20;99.90;;;;;;5035200;28;20036;-84
2023/06/10 10:02:06;;;;;;;1999.90;999.90;;;32.30;99.90;;;;;;5035117;28;20108;-84
2023/06/10 10:04:35;;;;;;;1999.90;999.90;;;32.40;99.90;;;;;;5034958;28;20117;-84
2023/06/10 10:07:01;;;;;;;1999.90;999.90;;;33.00;99.90;;;;;;5035080;28;20021;-84
2023/06/10 10:09:26;;;;;;;1999.90;999.90;;;31.40;99.90;;;;;;5034944;28;20511;-84
2023/06/10 10:11:55;;;;;;;1999.90;999.90;;;32.30;99.90;;;;;;5034893;28;20042;-84
2023/06/10 10:14:21;;;;;;;1999.90;999.90;;;32.70;99.90;;;;;;5034959;28;20017;-84
2023/06/10 10:16:49;;;;;;;1999.90;999.90;;;32.70;99.90;;;;;;5035535;28;20033;-84
2023/06/10 10:19:29;;;;;;;1999.90;999.90;;;31.80;99.90;;;;;;5034626;28;20026;-84
2023/06/10 10:22:01;;;;;;;1999.90;999.90;;;32.20;99.90;;;;;;5035006;28;20034;-84
2023/06/10 10:24:33;;;;;;;;;;;31.60;99.90;;;;;;5034904;28;20021;-84
2023/06/10 10:27:00;;;;;;;1999.90;999.90;;;32.10;99.90;;;;;;5034229;28;19905;-84
2023/06/10 10:29:31;;;;;;;1999.90;999.90;;;32.50;99.90;;;;;;5033839;28;20087;-84
2023/06/10 10:32:00;;;;;;;1999.90;999.90;;;32.50;99.90;;;;;;5033954;28;20025;-85
2023/06/10 10:34:47;;;;;;;1999.90;999.90;;;32.10;99.90;;;;;;5033534;28;20037;-85
2023/06/10 10:37:12;;;;;;;1999.90;999.90;;;31.00;99.90;;;;;;5034113;28;20042;-84
2023/06/10 10:39:39;;;;;;;1999.90;999.90;;;30.70;99.90;;;;;;5033722;28;20071;-84
2023/06/10 10:42:10;;;;;;;1999.90;999.90;;;31.20;99.90;;;;;;5033920;28;20033;-86
2023/06/10 10:44:37;;;;;;;1999.90;999.90;;;30.90;99.90;;;;;;5034005;28;20075;-85
2023/06/10 10:47:07;;;;;;;1999.90;999.90;;;30.70;99.90;;;;;;5033653;28;20079;-84
2023/06/10 10:49:35;;;;;;;1999.90;999.90;;;29.50;99.90;;;;;;5033820;28;20104;-85
2023/06/10 10:52:01;;;;;;;1999.90;999.90;;;29.20;99.90;;;;;;5033434;28;20029;-85
2023/06/10 10:54:31;;;;;;;1999.90;999.90;;;29.70;99.90;;;;;;5044285;28;20022;-86
2023/06/10 10:57:10;;;;;;;1999.90;999.90;;;29.80;99.90;;;;;;5034399;28;20071;-85
2023/06/10 10:59:48;;;;;;;1999.90;999.90;;;30.50;99.90;;;;;;5033715;28;20092;-85
2023/06/10 11:02:43;;;;;;;1999.90;999.90;;;30.20;99.90;;;;;;5033332;28;20029;-86
2023/06/10 11:05:10;;;;;;;1999.90;999.90;;;29.80;99.90;;;;;;5027770;28;20444;-86
2023/06/10 11:07:36;;;;;;;1999.90;999.90;;;29.90;99.90;;;;;;5033487;28;20053;-86
2023/06/10 11:10:07;;;;;;;1999.90;999.90;;;30.60;99.90;;;;;;5033236;28;20033;-86
2023/06/10 11:12:54;;;;;;;1999.90;999.90;;;30.60;99.90;;;;;;5015918;28;20029;-79
2023/06/10 11:15:29;;;;;;;1999.90;999.90;;;31.30;99.90;;;;;;5033706;28;20028;-87
2023/06/10 11:18:26;;;;;;;1999.90;999.90;;;31.50;99.90;;;;;;5015881;28;20053;-87
2023/06/10 11:20:57;;;;;;;1999.90;999.90;;;31.20;99.90;;;;;;5033639;28;20033;-86
2023/06/10 11:23:29;;;;;;;1999.90;999.90;;;30.00;99.90;;;;;;5033591;28;20538;-87
2023/06/10 11:26:11;;;;;;;1999.90;999.90;;;30.70;99.90;;;;;;5033691;28;20091;-86
2023/06/10 11:28:40;;;;;;;1999.90;999.90;;;31.30;99.90;;;;;;5034208;28;20025;-78
2023/06/10 11:31:06;;;;;;;1999.90;999.90;;;31.00;99.90;;;;;;5033590;28;20075;-78
2023/06/10 11:33:32;;;;;;;1999.90;999.90;;;30.30;99.90;;;;;;5033679;28;20025;-85
2023/06/10 11:35:58;;;;;;;1999.90;999.90;;;29.90;99.90;;;;;;5033430;28;20050;-85
2023/06/10 11:38:24;;;;;;;1999.90;999.90;;;30.30;99.90;;;;;;5015406;28;20033;-88
2023/06/10 11:40:51;;;;;;;1999.90;999.90;;;30.40;99.90;;;;;;5033545;28;20113;-87
2023/06/10 11:43:19;;;;;;;1999.90;999.90;;;30.60;99.90;;;;;;5033356;28;20044;-87
2023/06/10 11:45:45;;;;;;;1999.90;999.90;;;29.90;99.90;;;;;;5033018;28;20086;-87
2023/06/10 11:48:12;;;;;;;1999.90;999.90;;;29.10;99.90;;;;;;5032943;28;20490;-87
2023/06/10 11:50:38;;;;;;;1999.90;999.90;;;29.20;99.90;;;;;;5032943;28;20021;-86
2023/06/10 11:53:04;;;;;;;1999.90;999.90;;;29.50;99.90;;;;;;5033779;28;20018;-87
2023/06/10 11:55:42;;;;;;;1999.90;999.90;;;30.30;99.90;;;;;;5032477;28;20025;-88
2023/06/10 11:58:19;;;;;;;1999.90;999.90;;;29.70;99.90;;;;;;5033107;28;20049;-88
2023/06/10 12:00:47;;;;;;;1999.90;999.90;;;29.60;99.90;;;;;;5032854;28;20396;-87
2023/06/10 12:03:13;;;;;;;1999.90;999.90;;;29.40;99.90;;;;;;5032683;28;20021;-87